Flight Track Log - Related Links

Times and Time Zones

All times are in EDT time to prevent confusion due to time zone crossing. See the N9191V flight status page for this flight to view local times or setup timezone preferences in your user account.

Time Position Orientation Groundspeed Altitude Reporting Facility
EDT Latitude Longitude Course Direction KTS MPH feet Rate Location/Type
Sun 09:32:25 AM 42.7631 -73.8061 North 111 128 800  Level Boston Center
Sun 09:33:38 AM 42.8028 -73.8042 North 111 128 1,500 541 Climbing Boston Center
Sun 09:34:38 AM 42.8319 -73.7992 North 114 131 2,000 522 Climbing Boston Center
Sun 09:35:33 AM 42.8553 -73.7742 38° Northeast 119 137 2,500 569 Climbing Boston Center
Sun 09:36:34 AM 42.8786 -73.7406 47° Northeast 119 137 3,100 590 Climbing Boston Center
Sun 09:37:35 AM 42.8914 -73.7011 66° East 124 143 3,700 595 Climbing Boston Center
Sun 09:38:35 AM 42.8919 -73.6531 89° East 126 145 4,300 678 Climbing Boston Center
Sun 09:39:30 AM 42.9050 -73.6192 62° Northeast 117 135 5,000 621 Climbing Boston Center
Sun 09:40:31 AM 42.9300 -73.5969 33° Northeast 112 129 5,500 496 Climbing Boston Center
Sun 09:41:31 AM 42.9594 -73.5719 32° Northeast 121 139 6,000 496 Climbing Boston Center
Sun 09:42:32 AM 42.9892 -73.5414 37° Northeast 123 142 6,500 492 Climbing Boston Center
Sun 09:43:33 AM 43.0164 -73.5136 37° Northeast 123 142 7,000 246 Climbing Boston Center
Sun 09:44:34 AM 43.0481 -73.4828 35° Northeast 133 153 7,000  Level Boston Center
Sun 09:46:04 AM 43.0964 -73.4325 37° Northeast 174 200 7,000  Level Boston Center
Sun 09:47:15 AM 43.1300 -73.4017 34° Northeast 174 200 7,000  Level Boston Center
Sun 09:49:00 AM 43.1621 -73.3598 44° Northeast  Level FlightAware Approximate
Sun 09:56:00 AM 43.2921 -73.2000 North  Level FlightAware Approximate
Sun 09:57:00 AM 43.3125 -73.1834 44° Northeast  Level FlightAware Approximate
Sun 09:58:00 AM 43.3306 -73.1592 44° Northeast  Level FlightAware Approximate
Sun 09:59:00 AM 43.3488 -73.1349 44° Northeast  Level FlightAware Approximate
Sun 10:00:00 AM 43.3683 -73.1128 39° Northeast  Level FlightAware Approximate
Sun 10:01:00 AM 43.3879 -73.0908 39° Northeast  Level FlightAware Approximate
Sun 10:02:00 AM 43.4075 -73.0687 39° Northeast  Level FlightAware Approximate
Sun 10:03:00 AM 43.4271 -73.0467 39° Northeast  Level FlightAware Approximate
Sun 10:04:00 AM 43.4467 -73.0247 39° Northeast  Level FlightAware Approximate
Sun 10:05:00 AM 43.4663 -73.0026 39° Northeast  Level FlightAware Approximate
Sun 10:06:00 AM 43.4855 -72.9800 47° Northeast  Level FlightAware Approximate
Sun 10:07:00 AM 43.5027 -72.9544 47° Northeast  Level FlightAware Approximate
Sun 10:08:00 AM 43.5167 -72.9333 47° Northeast  Level FlightAware Approximate
Sun 10:09:00 AM 43.5299 -72.9496 47° Northeast  Level Estimated
Sun 10:10:00 AM 43.5299 -72.9496 47° Northeast  Level Estimated
Sun 10:11:00 AM 43.5299 -72.9496 47° Northeast  Level Estimated
Sun 10:12:00 AM 43.5299 -72.9496 47° Northeast  Level Estimated
Sun 10:13:00 AM 43.5299 -72.9496 47° Northeast  Level Estimated
Sun 10:14:00 AM 43.5299 -72.9496 47° Northeast  Level Estimated

Login

Don't have an account? Register now (free) for customized features, flight alerts, and more!